Troye d'Ariège ULM

FR-0355 · Occitanie, 法国

2022年10月2日

时间 代码 天气 温度 能见度 天花板 METAR/SPECI
19:00
V
23 °C 10 km+ - 240° 240° 7 kt METAR LESU 021700Z 24007KT 210V270 CAVOK 23/10 Q1025
18:30
V
24 °C 10 km+ - 240° 240° 7 kt METAR LESU 021630Z 24007KT 200V270 CAVOK 24/10 Q1025
18:00
V
25 °C 10 km+ - 240° 240° 7 kt METAR LESU 021600Z 24007KT 210V270 CAVOK 25/10 Q1025
17:30
V
26 °C 10 km+ - 230° 230° 7 kt METAR LESU 021530Z 23007KT 190V280 CAVOK 26/10 Q1025
17:00
V
26 °C 10 km+ - 220° 220° 7 kt METAR LESU 021500Z 22007KT 170V280 CAVOK 26/10 Q1025
16:30
V
26 °C 10 km+ - 210° 210° 8 kt METAR LESU 021430Z 21008KT 190V250 CAVOK 26/10 Q1025
16:00
V
25 °C 10 km+ - 230° 230° 5 kt METAR LESU 021400Z 23005KT 200V260 CAVOK 25/10 Q1026
15:30
V
24 °C 10 km+ - Var Var 2 kt METAR LESU 021330Z VRB02KT CAVOK 24/09 Q1026
15:00
V
24 °C 10 km+ - Var Var 2 kt METAR LESU 021300Z VRB02KT CAVOK 24/10 Q1027
14:30
V
23 °C 10 km+ - Var Var 2 kt METAR LESU 021230Z VRB02KT CAVOK 23/10 Q1027
14:00
V
21 °C 10 km+ - Var Var 2 kt METAR LESU 021200Z VRB02KT CAVOK 21/09 Q1028
13:30
V
20 °C 10 km+ - Var Var 2 kt METAR LESU 021130Z VRB02KT CAVOK 20/09 Q1028
13:00
V
19 °C 10 km+ - Var Var 2 kt METAR LESU 021100Z VRB02KT CAVOK 19/08 Q1029
12:30
V
17 °C 10 km+ - Var Var 1 kt METAR LESU 021030Z VRB01KT CAVOK 17/09 Q1029
12:00
V
16 °C 10 km+ - Var Var 2 kt METAR LESU 021000Z VRB02KT CAVOK 16/09 Q1030
11:30
V
14 °C 10 km+ - Var Var 2 kt METAR LESU 020930Z VRB02KT CAVOK 14/08 Q1030
11:00
V
12 °C 10 km+ - 100° 100° 3 kt METAR LESU 020900Z 10003KT 050V180 CAVOK 12/07 Q1031
10:30
V
12 °C 10 km+ - Var Var 1 kt METAR LESU 020830Z VRB01KT CAVOK 12/08 Q1031
10:00
V
9 °C 10 km+ - Var Var 2 kt METAR LESU 020800Z VRB02KT CAVOK 09/07 Q1031

2022年10月1日

时间 代码 天气 温度 能见度 天花板 METAR/SPECI
17:30
V
21 °C 10 km+ - 220° 220° 6 kt METAR LESU 011530Z 22006KT 190V270 CAVOK 21/06 Q1025
17:00
V
21 °C 10 km+ - 220° 220° 6 kt METAR LESU 011500Z 22006KT 170V260 CAVOK 21/06 Q1025
16:30
V
21 °C 10 km+ - 200° 200° 3 kt METAR LESU 011430Z 20003KT 130V270 CAVOK 21/05 Q1025
16:00
V
21 °C 10 km+ - Var Var 3 kt METAR LESU 011400Z VRB03KT CAVOK 21/05 Q1025
15:30
V
19 °C 10 km+ - 190° 190° 4 kt METAR LESU 011330Z 19004KT 150V250 CAVOK 19/04 Q1025
15:00
V
19 °C 10 km+ - Var Var 2 kt METAR LESU 011300Z VRB02KT CAVOK 19/02 Q1025
14:30
V
18 °C 10 km+ - 170° 170° 3 kt METAR LESU 011230Z 17003KT 100V220 CAVOK 18/00 Q1026
14:00
V
17 °C 10 km+ - 120° 120° 3 kt METAR LESU 011200Z 12003KT 050V170 CAVOK 17/01 Q1026
13:30
V
16 °C 10 km+ - Var Var 2 kt METAR LESU 011130Z VRB02KT CAVOK 16/00 Q1026
13:00
V
14 °C 10 km+ - Var Var 3 kt METAR LESU 011100Z VRB03KT CAVOK 14/02 Q1026
12:30
V
13 °C 10 km+ - Var Var 2 kt METAR LESU 011030Z VRB02KT CAVOK 13/03 Q1026
12:00
V
12 °C 10 km+ - 060° 060° 3 kt METAR LESU 011000Z 06003KT 330V130 CAVOK 12/02 Q1026
11:30
V
12 °C 10 km+ - Var Var 1 kt METAR LESU 010930Z VRB01KT CAVOK 12/03 Q1026
11:00
V
9 °C 10 km+ - Var Var 2 kt METAR LESU 010900Z VRB02KT 9999 FEW090 09/03 Q1026
10:30
V
9 °C 10 km+ - Var Var 1 kt METAR LESU 010830Z VRB01KT 9999 FEW090 09/03 Q1026
10:00
V
7 °C 10 km+ - Var Var 2 kt METAR LESU 010800Z VRB02KT 9999 SCT090 07/04 Q1026
09:30
V
5 °C 10 km+ - Var Var 2 kt METAR LESU 010730Z VRB02KT 9999 SCT073 05/02 Q1026
09:00
V
5 °C 10 km+ 9.000 ft Var Var 2 kt METAR LESU 010700Z VRB02KT 9999 BKN090 FEW078 05/01 Q1026

2022年9月30日

时间 代码 天气 温度 能见度 天花板 METAR/SPECI
19:00
V
16 °C 10 km+ - 320° 320° 10 kt METAR LESU 301700Z 32010KT 9999 FEW090 16/00 Q1015
18:30
V
16 °C 10 km+ - 320° 320° 11 kt METAR LESU 301630Z 32011KT 290V350 9999 FEW084 16/M01 Q1014
18:00
V
16 °C 10 km+ - 310° 310° 11 kt METAR LESU 301600Z 31011KT 9999 SCT085 16/M02 Q1014
17:30
V
17 °C 10 km+ - 290° 290° 10 kt METAR LESU 301530Z 29010KT 9999 SCT082 17/M01 Q1014
17:00
V
17 °C 10 km+ - 310° 310° 10 kt METAR LESU 301500Z 31010KT 270V330 9999 SCT082 17/M01 Q1014
较旧的数据

我们和第三方通过cookies跟踪您在我们网站上的上网行为。如果您继续,我们认为您同意我们的cookie政策。 了解更多